createdAt,value
2022-09-24T00:01:26.440Z,99.71
2022-09-24T00:03:56.480Z,99.66
2022-09-24T00:06:23.503Z,100.00
2022-09-24T00:08:53.018Z,100.00
2022-09-24T00:11:21.784Z,99.96
2022-09-24T00:13:49.779Z,98.89
2022-09-24T00:16:17.963Z,99.23
2022-09-24T00:18:44.811Z,98.46
2022-09-24T00:21:32.403Z,99.19
2022-09-24T00:24:01.624Z,98.88
2022-09-24T00:26:47.548Z,98.66
2022-09-24T00:29:17.898Z,97.93
2022-09-24T00:31:44.663Z,97.27
2022-09-24T00:34:12.079Z,98.01
2022-09-24T00:36:38.897Z,97.53
2022-09-24T00:39:06.415Z,98.83
2022-09-24T00:41:36.113Z,99.01
2022-09-24T00:44:47.738Z,98.36
2022-09-24T00:47:31.722Z,99.21
2022-09-24T00:50:21.049Z,99.24
2022-09-24T00:52:57.920Z,99.57
2022-09-24T00:55:25.234Z,98.92
2022-09-24T00:57:57.697Z,99.58
2022-09-24T01:00:25.021Z,99.42
2022-09-24T01:02:55.828Z,99.89
2022-09-24T01:05:22.921Z,99.95
2022-09-24T01:07:49.730Z,99.81
2022-09-24T01:10:38.174Z,99.25
2022-09-24T01:13:20.729Z,99.18
2022-09-24T01:16:04.578Z,99.30
2022-09-24T01:18:37.390Z,100.00
2022-09-24T01:21:29.755Z,100.00
2022-09-24T01:24:47.050Z,100.00
2022-09-24T01:27:20.780Z,100.00
2022-09-24T01:30:02.888Z,100.00
2022-09-24T01:32:40.825Z,100.00
2022-09-24T01:35:25.072Z,100.00
2022-09-24T01:37:59.220Z,100.00
2022-09-24T01:40:28.024Z,100.00
2022-09-24T01:42:57.129Z,100.00
2022-09-24T01:45:25.713Z,100.00
2022-09-24T01:47:52.595Z,100.00
2022-09-24T01:50:19.932Z,100.00
2022-09-24T01:52:58.533Z,100.00
2022-09-24T01:55:28.527Z,100.00
2022-09-24T01:57:59.912Z,100.00
2022-09-24T02:00:27.579Z,100.00
2022-09-24T02:03:04.945Z,100.00
2022-09-24T02:05:39.111Z,100.00
2022-09-24T02:08:25.267Z,100.00
2022-09-24T02:10:56.769Z,100.00
2022-09-24T02:13:26.384Z,100.00
2022-09-24T02:15:57.270Z,100.00
2022-09-24T02:18:29.297Z,100.00
2022-09-24T02:20:56.740Z,100.00
2022-09-24T02:23:24.963Z,100.00
2022-09-24T02:26:01.501Z,100.00
2022-09-24T02:28:28.981Z,100.00
2022-09-24T02:31:00.065Z,100.00
2022-09-24T02:33:46.031Z,100.00
2022-09-24T02:36:12.852Z,100.00
2022-09-24T02:38:39.505Z,100.00
2022-09-24T02:41:08.615Z,100.00
2022-09-24T02:43:36.793Z,100.00
2022-09-24T02:46:03.583Z,100.00
2022-09-24T02:48:30.279Z,100.00
2022-09-24T02:50:57.158Z,100.00
2022-09-24T02:53:23.860Z,100.00
2022-09-24T02:55:50.653Z,100.00
2022-09-24T02:58:17.427Z,100.00
2022-09-24T03:00:44.147Z,100.00
2022-09-24T03:03:10.924Z,100.00
2022-09-24T03:05:37.775Z,100.00
2022-09-24T03:08:04.743Z,100.00
2022-09-24T03:10:31.498Z,100.00
2022-09-24T03:12:58.472Z,100.00
2022-09-24T03:15:26.081Z,100.00
2022-09-24T03:17:52.726Z,100.00
2022-09-24T03:20:19.430Z,100.00
2022-09-24T03:22:51.606Z,100.00
2022-09-24T03:25:21.969Z,100.00
2022-09-24T03:27:48.752Z,100.00
2022-09-24T03:30:34.348Z,100.00
2022-09-24T03:33:01.073Z,100.00
2022-09-24T03:35:27.761Z,100.00
2022-09-24T03:37:54.388Z,100.00
2022-09-24T03:40:21.129Z,100.00
2022-09-24T03:42:47.837Z,100.00
2022-09-24T03:45:14.696Z,100.00
2022-09-24T03:47:42.916Z,100.00
2022-09-24T03:50:12.770Z,100.00
2022-09-24T03:52:39.893Z,100.00
2022-09-24T03:55:07.670Z,100.00
2022-09-24T03:57:34.453Z,100.00
2022-09-24T04:00:02.035Z,100.00
2022-09-24T04:02:28.795Z,100.00
2022-09-24T04:04:55.502Z,100.00
2022-09-24T04:07:22.263Z,100.00
2022-09-24T04:09:48.987Z,100.00
2022-09-24T04:12:15.722Z,100.00
2022-09-24T04:14:45.374Z,100.00
2022-09-24T04:17:11.987Z,100.00
2022-09-24T04:19:39.870Z,100.00
2022-09-24T04:22:06.593Z,100.00
2022-09-24T04:24:33.383Z,100.00
2022-09-24T04:27:00.095Z,100.00
2022-09-24T04:29:26.861Z,100.00
2022-09-24T04:31:53.631Z,100.00
2022-09-24T04:34:21.485Z,100.00
2022-09-24T04:36:48.374Z,100.00
2022-09-24T04:39:15.829Z,100.00
2022-09-24T04:41:42.575Z,100.00
2022-09-24T04:44:09.430Z,100.00
2022-09-24T04:46:36.316Z,100.00
2022-09-24T04:49:03.338Z,100.00
2022-09-24T04:51:30.093Z,100.00
2022-09-24T04:53:56.742Z,100.00
2022-09-24T04:56:23.377Z,100.00
2022-09-24T04:58:51.928Z,100.00
2022-09-24T05:01:19.501Z,100.00
2022-09-24T05:03:46.394Z,100.00
2022-09-24T05:06:13.592Z,100.00
2022-09-24T05:08:40.340Z,100.00
2022-09-24T05:11:07.066Z,100.00
2022-09-24T05:13:35.365Z,100.00
2022-09-24T05:16:03.432Z,100.00
2022-09-24T05:18:30.234Z,100.00
2022-09-24T05:20:57.021Z,100.00
2022-09-24T05:23:23.762Z,100.00
2022-09-24T05:26:09.338Z,100.00
2022-09-24T05:28:36.419Z,100.00
2022-09-24T05:31:03.271Z,100.00
2022-09-24T05:33:30.180Z,100.00
2022-09-24T05:35:58.223Z,100.00
2022-09-24T05:38:25.171Z,100.00
2022-09-24T05:40:51.965Z,100.00
2022-09-24T05:43:21.969Z,100.00
2022-09-24T05:45:51.584Z,100.00
2022-09-24T05:48:18.371Z,100.00
2022-09-24T05:50:45.195Z,100.00
2022-09-24T05:53:11.941Z,100.00
2022-09-24T05:55:38.886Z,100.00
2022-09-24T05:58:07.691Z,100.00
2022-09-24T06:00:36.198Z,100.00
2022-09-24T06:03:08.226Z,100.00
2022-09-24T06:05:35.918Z,100.00
2022-09-24T06:08:03.834Z,100.00
2022-09-24T06:10:30.761Z,100.00
2022-09-24T06:12:57.490Z,100.00
2022-09-24T06:15:24.436Z,100.00
2022-09-24T06:17:53.821Z,100.00
2022-09-24T06:20:21.607Z,100.00
2022-09-24T06:22:48.620Z,100.00
2022-09-24T06:25:15.463Z,100.00
2022-09-24T06:27:42.216Z,100.00
2022-09-24T06:30:09.657Z,100.00
2022-09-24T06:32:36.517Z,100.00
2022-09-24T06:35:03.853Z,100.00
2022-09-24T06:37:30.663Z,100.00
2022-09-24T06:39:57.375Z,100.00
2022-09-24T06:42:24.497Z,100.00
2022-09-24T06:44:51.694Z,100.00
2022-09-24T06:47:18.726Z,100.00
2022-09-24T06:49:45.363Z,100.00
2022-09-24T06:52:12.352Z,100.00
2022-09-24T06:54:39.107Z,100.00
2022-09-24T06:57:07.023Z,100.00
2022-09-24T06:59:33.710Z,100.00
2022-09-24T07:02:00.425Z,99.48
2022-09-24T07:04:27.169Z,99.06
2022-09-24T07:07:12.506Z,98.69
2022-09-24T07:09:41.611Z,98.44
2022-09-24T07:12:09.103Z,98.13
2022-09-24T07:14:35.866Z,98.08
2022-09-24T07:17:02.600Z,98.38
2022-09-24T07:19:29.309Z,97.00
2022-09-24T07:21:56.062Z,95.36
2022-09-24T07:24:22.726Z,95.54
2022-09-24T07:26:49.717Z,95.88
2022-09-24T07:29:16.520Z,95.10
2022-09-24T07:31:43.181Z,94.78
2022-09-24T07:34:10.089Z,94.90
2022-09-24T07:36:37.060Z,94.72
2022-09-24T07:39:04.099Z,95.51
2022-09-24T07:41:30.826Z,95.01
2022-09-24T07:43:57.709Z,94.49
2022-09-24T07:46:24.976Z,94.48
2022-09-24T07:48:58.097Z,93.64
2022-09-24T07:51:27.842Z,93.32
2022-09-24T07:53:58.135Z,92.13
2022-09-24T07:56:25.677Z,91.51
2022-09-24T07:58:53.737Z,91.62
2022-09-24T08:01:20.740Z,90.96
2022-09-24T08:03:47.825Z,87.90
2022-09-24T08:06:14.691Z,87.21
2022-09-24T08:08:41.478Z,88.82
2022-09-24T08:11:10.871Z,89.77
2022-09-24T08:13:38.217Z,89.35
2022-09-24T08:16:06.342Z,89.46
2022-09-24T08:18:33.609Z,89.33
2022-09-24T08:21:05.396Z,88.32
2022-09-24T08:23:33.189Z,86.97
2022-09-24T08:26:00.638Z,85.58
2022-09-24T08:28:27.479Z,83.57
2022-09-24T08:31:01.000Z,83.49
2022-09-24T08:33:28.562Z,84.10
2022-09-24T08:35:55.359Z,83.01
2022-09-24T08:38:22.044Z,83.39
2022-09-24T08:41:19.916Z,81.84
2022-09-24T08:43:53.445Z,83.27
2022-09-24T08:46:44.991Z,82.90
2022-09-24T08:49:17.396Z,80.86
2022-09-24T08:51:54.523Z,81.58
2022-09-24T08:54:24.347Z,81.61
2022-09-24T08:56:53.385Z,80.84
2022-09-24T08:59:33.689Z,79.50
2022-09-24T09:02:19.240Z,77.92
2022-09-24T09:04:58.612Z,77.83
2022-09-24T09:07:46.118Z,76.12
2022-09-24T09:10:19.487Z,77.23
2022-09-24T09:12:54.433Z,75.63
2022-09-24T09:15:34.341Z,77.16
2022-09-24T09:18:20.141Z,77.31
2022-09-24T09:20:48.407Z,76.18
2022-09-24T09:23:44.714Z,75.80
2022-09-24T09:26:12.068Z,77.28
2022-09-24T09:28:38.689Z,75.78
2022-09-24T09:31:52.536Z,76.13
2022-09-24T09:34:37.822Z,77.08
2022-09-24T09:37:36.767Z,77.44
2022-09-24T09:40:19.986Z,74.62
2022-09-24T09:42:47.508Z,75.42
2022-09-24T09:45:28.503Z,75.65
2022-09-24T09:47:57.272Z,75.76
2022-09-24T09:50:36.972Z,75.01
2022-09-24T09:53:05.163Z,74.35
2022-09-24T09:55:36.432Z,74.79
2022-09-24T09:58:22.357Z,73.54
2022-09-24T10:00:50.018Z,72.06
2022-09-24T10:03:26.385Z,72.24
2022-09-24T10:05:55.810Z,69.64
2022-09-24T10:08:24.131Z,70.34
2022-09-24T10:10:59.238Z,70.57
2022-09-24T10:13:26.885Z,71.50
2022-09-24T10:15:58.568Z,71.45
2022-09-24T10:18:47.673Z,70.79
2022-09-24T10:21:28.163Z,70.91
2022-09-24T10:23:59.577Z,71.22
2022-09-24T10:26:44.798Z,69.78
2022-09-24T10:29:36.230Z,70.49
2022-09-24T10:32:04.639Z,70.40
2022-09-24T10:34:31.762Z,69.93
2022-09-24T10:37:10.191Z,69.25
2022-09-24T10:39:38.242Z,68.39
2022-09-24T10:42:05.674Z,68.97
2022-09-24T10:44:38.718Z,67.28
2022-09-24T10:47:17.642Z,67.90
2022-09-24T10:50:06.569Z,67.56
2022-09-24T10:53:14.331Z,67.51
2022-09-24T10:55:58.452Z,67.30
2022-09-24T10:59:30.111Z,65.94
2022-09-24T11:02:26.463Z,65.10
2022-09-24T11:05:00.802Z,64.55
2022-09-24T11:08:18.830Z,64.08
2022-09-24T11:11:12.232Z,65.24
2022-09-24T11:14:02.738Z,63.47
2022-09-24T11:17:07.002Z,63.03
2022-09-24T11:20:21.301Z,63.59
2022-09-24T11:23:13.134Z,59.85
2022-09-24T11:26:04.508Z,57.49
2022-09-24T11:29:11.228Z,58.98
2022-09-24T11:31:45.975Z,58.54
2022-09-24T11:35:00.383Z,58.77
2022-09-24T11:38:05.116Z,56.14
2022-09-24T11:40:54.022Z,55.79
2022-09-24T11:43:45.621Z,57.65
2022-09-24T11:46:48.777Z,55.28
2022-09-24T11:49:22.633Z,57.19
2022-09-24T11:52:09.559Z,55.61
2022-09-24T11:55:06.367Z,56.64
2022-09-24T11:57:37.300Z,57.13
2022-09-24T12:00:08.562Z,54.52
2022-09-24T12:02:44.785Z,56.42
2022-09-24T12:05:38.283Z,55.53
2022-09-24T12:08:16.982Z,58.24
2022-09-24T12:10:50.321Z,58.13
2022-09-24T12:13:21.585Z,59.45
2022-09-24T12:16:02.059Z,59.36
2022-09-24T12:18:57.549Z,60.77
2022-09-24T12:21:28.458Z,61.46
2022-09-24T12:24:06.651Z,60.16
2022-09-24T12:26:37.069Z,61.09
2022-09-24T12:29:57.414Z,61.41
2022-09-24T12:32:57.263Z,61.57
2022-09-24T12:35:33.509Z,60.76
2022-09-24T12:38:15.194Z,61.26
2022-09-24T12:40:56.346Z,60.35
2022-09-24T12:43:29.014Z,57.73
2022-09-24T12:45:59.679Z,59.00
2022-09-24T12:48:26.654Z,59.44
2022-09-24T12:50:59.636Z,55.88
2022-09-24T12:53:32.854Z,56.22
2022-09-24T12:56:00.751Z,56.85
2022-09-24T12:58:30.948Z,56.93
2022-09-24T13:01:11.829Z,57.75
2022-09-24T13:03:46.002Z,61.07
2022-09-24T13:06:32.952Z,59.06
2022-09-24T13:09:00.051Z,59.38
2022-09-24T13:11:30.068Z,54.91
2022-09-24T13:14:04.371Z,56.45
2022-09-24T13:16:32.450Z,55.07
2022-09-24T13:19:00.518Z,55.31
2022-09-24T13:21:29.203Z,54.72
2022-09-24T13:23:56.495Z,55.16
2022-09-24T13:26:33.964Z,55.36
2022-09-24T13:29:23.736Z,57.22
2022-09-24T13:32:00.703Z,56.69
2022-09-24T13:34:29.236Z,57.44
2022-09-24T13:37:20.274Z,57.74
2022-09-24T13:39:59.380Z,55.99
2022-09-24T13:42:50.349Z,57.79
2022-09-24T13:45:24.115Z,57.47
2022-09-24T13:47:56.852Z,54.89
2022-09-24T13:50:27.877Z,53.96
2022-09-24T13:53:17.947Z,55.80
2022-09-24T13:55:46.285Z,55.54
2022-09-24T13:58:35.937Z,55.46
2022-09-24T14:01:19.591Z,55.41
2022-09-24T14:04:27.165Z,55.54
2022-09-24T14:06:55.770Z,54.77
2022-09-24T14:09:49.468Z,52.53
2022-09-24T14:12:21.496Z,53.72
2022-09-24T14:14:57.614Z,54.49
2022-09-24T14:17:25.530Z,54.63
2022-09-24T14:19:57.207Z,51.60
2022-09-24T14:22:30.956Z,53.86
2022-09-24T14:25:04.806Z,51.50
2022-09-24T14:27:32.905Z,51.37
2022-09-24T14:30:05.670Z,53.24
2022-09-24T14:32:35.395Z,53.62
2022-09-24T14:35:30.309Z,52.49
2022-09-24T14:38:16.645Z,52.08
2022-09-24T14:41:04.719Z,51.38
2022-09-24T14:43:38.877Z,53.05
2022-09-24T14:46:07.200Z,53.40
2022-09-24T14:48:34.677Z,53.47
2022-09-24T14:51:01.998Z,51.54
2022-09-24T14:53:37.413Z,52.31
2022-09-24T14:56:33.286Z,53.78
2022-09-24T14:59:00.403Z,53.43
2022-09-24T15:01:32.767Z,54.75
2022-09-24T15:04:04.618Z,52.90
2022-09-24T15:06:36.032Z,52.35
2022-09-24T15:09:25.758Z,53.20
2022-09-24T15:11:54.643Z,53.11
2022-09-24T15:14:27.713Z,53.83
2022-09-24T15:16:55.271Z,54.32
2022-09-24T15:19:23.835Z,53.25
2022-09-24T15:21:56.971Z,53.90
2022-09-24T15:24:25.333Z,52.62
2022-09-24T15:27:06.970Z,52.96
2022-09-24T15:29:33.790Z,53.47
2022-09-24T15:32:01.708Z,54.48
2022-09-24T15:34:29.190Z,54.58
2022-09-24T15:36:59.617Z,54.55
2022-09-24T15:39:27.451Z,55.67
2022-09-24T15:41:54.354Z,55.18
2022-09-24T15:44:25.408Z,54.83
2022-09-24T15:46:55.294Z,57.38
2022-09-24T15:49:23.161Z,57.67
2022-09-24T15:51:52.769Z,56.19
2022-09-24T15:54:19.848Z,58.08
2022-09-24T15:56:52.436Z,57.75
2022-09-24T15:59:20.884Z,57.17
2022-09-24T16:01:49.191Z,57.97
2022-09-24T16:04:15.999Z,56.91
2022-09-24T16:06:43.482Z,56.63
2022-09-24T16:09:10.315Z,56.93
2022-09-24T16:11:37.155Z,58.02
2022-09-24T16:14:03.927Z,57.56
2022-09-24T16:16:30.676Z,57.45
2022-09-24T16:18:57.445Z,57.26
2022-09-24T16:21:24.289Z,57.69
2022-09-24T16:23:55.557Z,57.90
2022-09-24T16:26:22.446Z,59.01
2022-09-24T16:28:51.763Z,59.13
2022-09-24T16:31:23.658Z,59.61
2022-09-24T16:33:50.616Z,59.79
2022-09-24T16:36:17.446Z,60.30
2022-09-24T16:38:44.212Z,60.46
2022-09-24T16:41:11.071Z,62.31
2022-09-24T16:43:37.850Z,63.11
2022-09-24T16:46:07.035Z,62.00
2022-09-24T16:48:34.037Z,62.82
2022-09-24T16:51:06.017Z,63.35
2022-09-24T16:53:34.877Z,63.60
2022-09-24T16:56:13.530Z,64.01
2022-09-24T16:58:41.246Z,65.04
2022-09-24T17:01:10.384Z,66.21
2022-09-24T17:03:37.218Z,67.40
2022-09-24T17:06:04.351Z,66.75
2022-09-24T17:08:50.611Z,66.18
2022-09-24T17:11:17.477Z,67.48
2022-09-24T17:13:44.595Z,70.41
2022-09-24T17:16:11.544Z,71.89
2022-09-24T17:18:38.367Z,72.30
2022-09-24T17:21:08.518Z,72.62
2022-09-24T17:23:35.660Z,73.32
2022-09-24T17:26:04.106Z,73.20
2022-09-24T17:28:35.311Z,74.19
2022-09-24T17:31:02.835Z,75.13
2022-09-24T17:33:43.014Z,76.17
2022-09-24T17:36:12.457Z,77.74
2022-09-24T17:38:39.348Z,75.29
2022-09-24T17:41:11.453Z,76.45
2022-09-24T17:43:40.959Z,78.14
2022-09-24T17:46:14.096Z,78.37
2022-09-24T17:48:46.536Z,78.97
2022-09-24T17:51:22.981Z,79.05
2022-09-24T17:53:51.539Z,79.61
2022-09-24T17:56:18.528Z,81.03
2022-09-24T17:58:47.291Z,79.40
2022-09-24T18:01:20.467Z,79.34
2022-09-24T18:03:49.817Z,80.18
2022-09-24T18:06:17.500Z,79.41
2022-09-24T18:08:45.533Z,79.21
2022-09-24T18:11:15.359Z,79.51
2022-09-24T18:13:42.652Z,80.01
2022-09-24T18:16:15.084Z,80.32
2022-09-24T18:18:43.670Z,81.76
2022-09-24T18:21:12.660Z,81.41
2022-09-24T18:23:40.371Z,82.37
2022-09-24T18:26:18.900Z,83.35
2022-09-24T18:28:54.801Z,82.19
2022-09-24T18:31:24.487Z,82.22
2022-09-24T18:33:52.754Z,83.74
2022-09-24T18:36:21.947Z,84.59
2022-09-24T18:38:49.030Z,84.87
2022-09-24T18:41:21.828Z,85.30
2022-09-24T18:43:49.785Z,85.75
2022-09-24T18:46:17.994Z,85.14
2022-09-24T18:48:47.526Z,85.99
2022-09-24T18:51:20.443Z,85.73
2022-09-24T18:53:58.566Z,86.54
2022-09-24T18:56:26.366Z,86.29
2022-09-24T18:59:04.672Z,87.10
2022-09-24T19:01:34.091Z,87.59
2022-09-24T19:04:01.781Z,87.96
2022-09-24T19:06:30.247Z,87.99
2022-09-24T19:08:57.748Z,90.18
2022-09-24T19:11:24.592Z,90.53
2022-09-24T19:13:53.731Z,90.07
2022-09-24T19:16:25.738Z,90.44
2022-09-24T19:18:54.039Z,90.67
2022-09-24T19:21:22.751Z,90.84
2022-09-24T19:23:51.605Z,91.78
2022-09-24T19:26:21.691Z,91.15
2022-09-24T19:28:52.498Z,91.36
2022-09-24T19:31:31.212Z,92.10
2022-09-24T19:34:00.284Z,90.93
2022-09-24T19:36:26.971Z,90.29
2022-09-24T19:38:53.994Z,91.27
2022-09-24T19:41:27.821Z,89.95
2022-09-24T19:43:57.219Z,92.30
2022-09-24T19:46:26.198Z,92.01
2022-09-24T19:48:54.994Z,92.89
2022-09-24T19:51:23.703Z,92.43
2022-09-24T19:53:55.252Z,92.65
2022-09-24T19:56:24.842Z,92.05
2022-09-24T19:58:54.021Z,92.15
2022-09-24T20:01:22.814Z,92.07
2022-09-24T20:03:49.969Z,92.36
2022-09-24T20:06:19.468Z,92.99
2022-09-24T20:08:47.125Z,93.47
2022-09-24T20:11:19.544Z,91.79
2022-09-24T20:13:47.178Z,92.59
2022-09-24T20:16:16.085Z,92.83
2022-09-24T20:18:43.469Z,91.93
2022-09-24T20:21:12.887Z,92.14
2022-09-24T20:23:42.968Z,92.28
2022-09-24T20:26:29.349Z,91.37
2022-09-24T20:28:56.226Z,91.44
2022-09-24T20:31:22.947Z,91.67
2022-09-24T20:33:50.156Z,91.70
2022-09-24T20:36:21.913Z,93.21
2022-09-24T20:38:51.065Z,93.03
2022-09-24T20:41:23.723Z,93.31
2022-09-24T20:43:51.771Z,93.37
2022-09-24T20:46:22.180Z,94.07
2022-09-24T20:48:49.035Z,95.00
2022-09-24T20:51:18.454Z,94.55
2022-09-24T20:53:49.333Z,95.11
2022-09-24T20:56:17.352Z,95.74
2022-09-24T20:58:44.607Z,95.42
2022-09-24T21:01:11.650Z,96.28
2022-09-24T21:03:44.531Z,95.94
2022-09-24T21:06:12.349Z,96.26
2022-09-24T21:08:43.580Z,95.65
2022-09-24T21:11:19.327Z,96.29
2022-09-24T21:13:51.057Z,96.37
2022-09-24T21:16:20.014Z,95.96
2022-09-24T21:18:47.498Z,96.51
2022-09-24T21:21:19.853Z,95.28
2022-09-24T21:23:48.744Z,95.41
2022-09-24T21:26:23.262Z,95.30
2022-09-24T21:28:52.727Z,96.08
2022-09-24T21:31:21.778Z,95.99
2022-09-24T21:33:54.409Z,95.93
2022-09-24T21:36:24.510Z,97.06
2022-09-24T21:38:59.599Z,97.57
2022-09-24T21:41:28.496Z,98.22
2022-09-24T21:43:56.023Z,97.72
2022-09-24T21:46:23.595Z,98.22
2022-09-24T21:48:51.496Z,98.68
2022-09-24T21:51:22.340Z,98.49
2022-09-24T21:53:50.737Z,98.00
2022-09-24T21:56:19.359Z,98.43
2022-09-24T21:58:50.248Z,97.80
2022-09-24T22:01:44.336Z,96.97
2022-09-24T22:04:11.866Z,96.71
2022-09-24T22:06:38.545Z,96.10
2022-09-24T22:09:06.734Z,96.25
2022-09-24T22:11:34.629Z,98.21
2022-09-24T22:14:02.645Z,98.59
2022-09-24T22:16:31.772Z,98.45
2022-09-24T22:18:58.981Z,98.47
2022-09-24T22:21:26.023Z,98.30
2022-09-24T22:23:53.197Z,98.31
2022-09-24T22:26:20.038Z,97.58
2022-09-24T22:28:47.202Z,97.40
2022-09-24T22:31:16.000Z,97.33
2022-09-24T22:34:01.827Z,97.41
2022-09-24T22:36:30.771Z,98.44
2022-09-24T22:38:59.587Z,98.37
2022-09-24T22:41:29.258Z,98.87
2022-09-24T22:43:57.472Z,98.82
2022-09-24T22:46:27.932Z,98.85
2022-09-24T22:48:55.907Z,100.00
2022-09-24T22:51:24.452Z,100.00
2022-09-24T22:53:52.343Z,100.00
2022-09-24T22:56:21.171Z,100.00
2022-09-24T22:58:56.755Z,100.00
2022-09-24T23:01:28.571Z,100.00
2022-09-24T23:03:56.311Z,100.00
2022-09-24T23:06:23.762Z,99.96
2022-09-24T23:08:52.161Z,99.96
2022-09-24T23:11:21.533Z,99.92
2022-09-24T23:13:52.956Z,99.59
2022-09-24T23:16:22.513Z,99.93
2022-09-24T23:18:52.192Z,99.69
2022-09-24T23:21:20.137Z,99.79
2022-09-24T23:23:47.520Z,99.98
2022-09-24T23:26:19.224Z,100.00
2022-09-24T23:28:47.074Z,100.00
2022-09-24T23:31:14.725Z,100.00
2022-09-24T23:33:42.761Z,100.00
2022-09-24T23:36:11.851Z,100.00
2022-09-24T23:38:38.680Z,100.00
2022-09-24T23:41:06.092Z,100.00
2022-09-24T23:43:33.515Z,100.00
2022-09-24T23:46:01.348Z,100.00
2022-09-24T23:48:28.554Z,100.00
2022-09-24T23:50:55.432Z,100.00
2022-09-24T23:53:22.198Z,100.00
2022-09-24T23:55:49.684Z,100.00
2022-09-24T23:58:18.500Z,100.00
